Time;durP1;ratioP1;P1;durP2;ratioP2;P2;SDS_P1;SDS_P2;PMS_P1;PMS_P2;Temp;Humidity;BMP_temperature;BMP_pressure;BME280_temperature;BME280_humidity;BME280_pressure;Samples;Min_cycle;Max_cycle;Signal;HPM_P1;HPM_P2
2022/12/29 00:01:31;;;;;;;2.00;1.30;;;11.00;92.40;;;;;;5098115;28;20504;-74
2022/12/29 00:03:57;;;;;;;2.17;1.40;;;11.00;92.30;;;;;;5134692;28;20549;-74
2022/12/29 00:06:23;;;;;;;1.30;1.20;;;11.00;92.30;;;;;;5117285;28;20043;-74
2022/12/29 00:08:48;;;;;;;2.10;1.33;;;11.00;92.30;;;;;;5117384;28;20080;-74
2022/12/29 00:11:17;;;;;;;1.30;1.05;;;10.90;92.30;;;;;;5118124;28;20891;-73
2022/12/29 00:16:25;;;;;;;1.70;1.23;;;11.00;92.40;;;;;;5134943;28;20043;-73
2022/12/29 00:18:51;;;;;;;1.92;1.10;;;11.00;92.30;;;;;;5116100;28;20039;-73
2022/12/29 00:44:04;;;;;;;1.92;1.30;;;11.00;92.30;;;;;;5118360;28;20043;-74
2022/12/29 00:45:36;;;;;;;1.20;1.00;;;11.00;92.30;;;;;;5118020;28;20058;-73
2022/12/29 00:48:02;;;;;;;2.00;1.10;;;11.00;92.30;;;;;;5116190;28;20039;-73
2022/12/29 00:50:27;;;;;;;1.38;1.10;;;11.00;92.30;;;;;;5098606;28;20490;-74
2022/12/29 00:52:53;;;;;;;1.35;0.77;;;11.00;92.30;;;;;;5099139;28;20043;-73
2022/12/29 00:55:18;;;;;;;1.38;0.98;;;11.00;92.30;;;;;;5099133;28;20100;-74
2022/12/29 00:57:44;;;;;;;1.30;1.00;;;11.00;92.30;;;;;;5082070;28;20103;-74
2022/12/29 01:00:10;;;;;;;1.33;1.10;;;11.10;92.30;;;;;;5081724;28;20520;-74
2022/12/29 01:02:36;;;;;;;1.38;1.00;;;11.00;92.30;;;;;;5115578;28;20084;-74
2022/12/29 01:05:01;;;;;;;1.10;0.80;;;11.00;92.30;;;;;;5115085;28;20043;-74
2022/12/29 01:07:27;;;;;;;1.25;1.10;;;11.00;92.30;;;;;;5098069;28;20035;-74
2022/12/29 01:12:41;;;;;;;1.27;0.90;;;11.00;92.30;;;;;;5117489;28;20457;-74
2022/12/29 01:15:08;;;;;;;0.93;0.70;;;11.00;92.30;;;;;;5099018;28;20039;-74
2022/12/29 01:17:34;;;;;;;1.50;0.90;;;11.10;92.30;;;;;;5098143;28;20517;-73
2022/12/29 01:20:01;;;;;;;1.02;0.77;;;11.10;92.30;;;;;;5114964;28;20063;-73
2022/12/29 01:22:27;;;;;;;1.08;0.90;;;11.00;92.20;;;;;;5097944;28;20035;-73
2022/12/29 01:24:53;;;;;;;0.73;0.63;;;11.00;92.20;;;;;;5115879;28;20092;-75
2022/12/29 01:27:18;;;;;;;1.13;0.70;;;11.10;92.20;;;;;;5101153;28;20104;-74
2022/12/29 01:29:44;;;;;;;1.02;0.70;;;11.00;92.50;;;;;;5115377;28;20096;-75
2022/12/29 01:32:09;;;;;;;0.73;0.70;;;11.00;92.20;;;;;;5133284;28;20071;-75
2022/12/29 01:34:35;;;;;;;0.52;0.50;;;11.00;92.30;;;;;;5136499;28;20038;-74
2022/12/29 01:37:01;;;;;;;0.88;0.50;;;11.00;92.30;;;;;;5116736;28;20045;-74
2022/12/29 01:39:26;;;;;;;0.95;0.60;;;10.90;92.30;;;;;;5134518;28;20031;-74
2022/12/29 01:41:52;;;;;;;0.40;0.40;;;10.80;92.30;;;;;;5098605;28;20116;-74
2022/12/29 01:44:52;;;;;;;0.70;0.52;;;10.80;92.30;;;;;;5081714;28;20413;-74
2022/12/29 01:47:39;;;;;;;0.68;0.60;;;10.70;92.40;;;;;;5115753;28;20039;-74
2022/12/29 01:50:32;;;;;;;0.70;0.57;;;10.80;92.40;;;;;;5099031;28;20043;-74
2022/12/29 01:53:05;;;;;;;0.70;0.50;;;10.90;92.40;;;;;;5117801;28;20068;-75
2022/12/29 01:55:35;;;;;;;0.52;0.52;;;10.80;92.40;;;;;;5103753;28;20064;-74
2022/12/29 01:58:04;;;;;;;0.60;0.43;;;10.80;92.40;;;;;;5136465;28;20055;-74
2022/12/29 02:00:30;;;;;;;0.70;0.60;;;10.80;92.40;;;;;;5099904;28;20048;-74
2022/12/29 02:02:55;;;;;;;0.50;0.50;;;10.80;92.40;;;;;;5116429;28;20051;-74
2022/12/29 02:05:31;;;;;;;1.00;0.70;;;10.80;92.40;;;;;;5123871;28;20047;-75
2022/12/29 02:07:58;;;;;;;0.65;0.65;;;10.80;92.40;;;;;;5122762;28;20038;-75
2022/12/29 02:10:26;;;;;;;1.33;0.90;;;10.80;92.40;;;;;;5089644;28;20070;-75
2022/12/29 02:12:53;;;;;;;1.10;0.80;;;10.90;92.40;;;;;;5142896;28;20138;-75
2022/12/29 02:15:28;;;;;;;1.00;0.75;;;10.90;92.40;;;;;;5085106;28;20497;-74
2022/12/29 02:18:18;;;;;;;1.27;0.73;;;10.90;92.30;;;;;;5136015;28;20046;-74
2022/12/29 02:21:23;;;;;;;1.00;0.77;;;11.00;92.30;;;;;;5136924;28;20050;-74
2022/12/29 02:24:21;;;;;;;1.13;0.90;;;11.10;92.30;;;;;;5105782;28;20039;-75
2022/12/29 02:27:27;;;;;;;2.08;1.00;;;11.10;92.20;;;;;;5125669;28;20043;-76
2022/12/29 02:30:25;;;;;;;1.40;0.80;;;11.10;92.20;;;;;;5112457;28;20462;-75
2022/12/29 02:33:00;;;;;;;0.82;0.75;;;11.20;92.20;;;;;;5092093;28;20065;-74
2022/12/29 02:35:37;;;;;;;1.88;0.80;;;11.10;92.20;;;;;;5122954;28;20039;-75
2022/12/29 02:38:20;;;;;;;1.40;0.88;;;11.20;92.10;;;;;;5106459;28;20035;-75
2022/12/29 02:40:58;;;;;;;1.10;0.85;;;11.20;92.10;;;;;;5125943;28;20046;-75
2022/12/29 02:43:39;;;;;;;0.60;0.50;;;11.20;92.00;;;;;;5141420;28;20501;-74
2022/12/29 02:46:19;;;;;;;0.70;0.50;;;11.20;92.00;;;;;;5102598;28;20040;-74
2022/12/29 02:48:54;;;;;;;2.20;0.60;;;11.40;92.00;;;;;;5104837;28;20050;-74
2022/12/29 02:51:27;;;;;;;0.95;0.60;;;11.40;91.90;;;;;;5117431;28;20039;-75
2022/12/29 02:56:32;;;;;;;1.30;0.73;;;11.50;91.70;;;;;;5127246;28;20046;-76
2022/12/29 02:58:58;;;;;;;1.27;0.60;;;11.50;91.70;;;;;;5119786;28;20069;-74
2022/12/29 03:01:37;;;;;;;1.85;0.70;;;11.50;91.70;;;;;;5136980;28;20043;-74
2022/12/29 03:04:28;;;;;;;0.80;0.60;;;11.50;91.60;;;;;;5135542;28;20035;-75
2022/12/29 03:07:12;;;;;;;2.40;0.80;;;11.50;91.60;;;;;;5119733;28;20035;-74
2022/12/29 03:09:49;;;;;;;2.45;0.70;;;11.50;91.80;;;;;;5135772;28;20038;-74
2022/12/29 03:18:19;;;;;;;1.90;0.68;;;11.70;91.20;;;;;;5119540;28;20430;-74
2022/12/29 03:20:54;;;;;;;1.83;0.63;;;11.70;91.20;;;;;;5116750;28;20078;-74
2022/12/29 03:23:23;;;;;;;1.60;0.68;;;11.70;91.20;;;;;;5135307;28;20067;-74
2022/12/29 03:25:53;;;;;;;1.85;0.70;;;11.70;91.20;;;;;;5116676;28;20031;-74
2022/12/29 03:28:23;;;;;;;1.45;0.60;;;11.70;91.20;;;;;;5116579;28;20039;-74
2022/12/29 03:30:49;;;;;;;2.40;0.80;;;11.60;91.10;;;;;;5099672;28;20031;-74
2022/12/29 03:33:21;;;;;;;1.20;0.60;;;11.70;91.20;;;;;;5116917;28;20043;-74
2022/12/29 03:35:49;;;;;;;2.35;0.75;;;11.70;91.10;;;;;;5134571;27;20051;-74
2022/12/29 03:38:31;;;;;;;1.00;0.52;;;11.70;91.10;;;;;;5135474;28;20074;-74
2022/12/29 03:41:00;;;;;;;1.20;0.50;;;11.60;91.00;;;;;;5134894;28;20394;-74
2022/12/29 03:43:27;;;;;;;0.88;0.38;;;11.60;91.00;;;;;;5135213;28;20039;-74
2022/12/29 03:45:52;;;;;;;0.57;0.50;;;11.60;91.00;;;;;;5116759;28;20043;-74
2022/12/29 03:48:18;;;;;;;0.93;0.40;;;11.60;91.00;;;;;;5116648;28;20039;-74
2022/12/29 03:50:44;;;;;;;0.90;0.40;;;11.60;91.10;;;;;;5116405;28;20495;-74
2022/12/29 03:53:09;;;;;;;1.73;0.50;;;11.60;91.10;;;;;;5099117;28;20043;-74
2022/12/29 03:55:35;;;;;;;0.40;0.40;;;11.50;91.10;;;;;;5134554;28;20165;-74
2022/12/29 03:58:00;;;;;;;0.77;0.45;;;11.60;91.10;;;;;;5134553;28;20050;-74
2022/12/29 04:00:26;;;;;;;0.47;0.30;;;11.50;91.10;;;;;;5135075;28;20470;-74
2022/12/29 04:02:52;;;;;;;1.92;0.63;;;11.50;91.10;;;;;;5116144;28;20541;-74
2022/12/29 04:05:17;;;;;;;0.80;0.60;;;11.60;91.10;;;;;;5115939;28;20485;-74
2022/12/29 04:07:43;;;;;;;0.65;0.50;;;11.50;91.00;;;;;;5134500;28;20031;-74
2022/12/29 04:10:09;;;;;;;1.25;0.60;;;11.50;91.00;;;;;;5134811;28;20042;-75
2022/12/29 04:12:34;;;;;;;1.25;0.60;;;11.60;91.00;;;;;;5116015;28;20043;-74
2022/12/29 04:15:00;;;;;;;1.52;0.50;;;11.60;91.00;;;;;;5115942;28;20126;-74
2022/12/29 04:17:25;;;;;;;0.80;0.50;;;11.50;90.90;;;;;;5134971;28;20067;-74
2022/12/29 04:20:59;;;;;;;1.42;0.40;;;11.50;91.00;;;;;;5134902;28;20035;-74
2022/12/29 04:22:37;;;;;;;0.85;0.40;;;11.50;90.90;;;;;;5134053;28;20096;-74
2022/12/29 04:25:02;;;;;;;0.75;0.40;;;11.50;91.00;;;;;;5134937;28;20039;-74
2022/12/29 04:27:28;;;;;;;0.40;0.40;;;11.40;91.00;;;;;;5116262;28;20535;-74
2022/12/29 04:29:53;;;;;;;1.02;0.45;;;11.40;91.00;;;;;;5099041;28;20039;-74
2022/12/29 04:32:19;;;;;;;2.03;0.50;;;11.40;91.10;;;;;;5134641;28;20039;-74
2022/12/29 04:34:45;;;;;;;0.75;0.50;;;11.40;91.10;;;;;;5116038;28;20046;-74
2022/12/29 04:37:10;;;;;;;0.57;0.30;;;11.30;91.00;;;;;;5134003;28;20406;-74
2022/12/29 04:39:36;;;;;;;1.02;0.40;;;11.20;91.10;;;;;;5116079;28;20035;-74
2022/12/29 04:42:01;;;;;;;0.40;0.28;;;11.20;91.20;;;;;;5134089;28;20092;-74
2022/12/29 04:44:27;;;;;;;0.88;0.35;;;11.10;91.20;;;;;;5115598;28;20122;-74
2022/12/29 04:46:53;;;;;;;0.32;0.30;;;11.10;91.30;;;;;;5114659;28;20127;-74
2022/12/29 04:49:18;;;;;;;0.40;0.40;;;11.00;91.40;;;;;;5115925;28;20039;-75
2022/12/29 04:51:44;;;;;;;1.33;0.40;;;10.90;91.40;;;;;;5098465;28;20072;-74
2022/12/29 04:54:10;;;;;;;0.95;0.43;;;10.90;91.50;;;;;;5115386;28;20045;-74
2022/12/29 04:56:35;;;;;;;0.65;0.38;;;10.90;91.60;;;;;;5133772;28;20039;-75
2022/12/29 04:59:01;;;;;;;0.63;0.40;;;10.80;91.60;;;;;;5098410;28;20043;-75
2022/12/29 05:01:26;;;;;;;0.30;0.22;;;10.80;91.70;;;;;;5133781;28;20428;-75
2022/12/29 05:03:52;;;;;;;0.70;0.55;;;10.70;91.70;;;;;;5115586;28;20064;-75
2022/12/29 05:06:18;;;;;;;2.17;0.55;;;10.70;91.70;;;;;;5133990;28;20118;-74
2022/12/29 05:08:43;;;;;;;0.65;0.50;;;10.60;91.70;;;;;;5133978;28;20079;-74
2022/12/29 05:11:09;;;;;;;1.33;0.50;;;10.50;91.70;;;;;;5115693;28;20066;-75
2022/12/29 05:13:34;;;;;;;1.67;0.50;;;10.50;91.80;;;;;;5115533;28;20035;-75
2022/12/29 05:16:00;;;;;;;1.23;0.40;;;10.50;91.90;;;;;;5115281;28;20075;-75
2022/12/29 05:18:26;;;;;;;1.13;0.40;;;10.40;91.90;;;;;;5115113;28;20531;-75
2022/12/29 05:20:51;;;;;;;0.57;0.55;;;10.40;91.90;;;;;;5133643;28;20043;-75
2022/12/29 05:23:17;;;;;;;1.45;0.70;;;10.40;91.90;;;;;;5133636;28;20473;-75
2022/12/29 05:25:45;;;;;;;0.60;0.52;;;10.40;91.90;;;;;;5115705;28;20039;-74
2022/12/29 05:28:10;;;;;;;0.50;0.40;;;10.40;91.90;;;;;;5133424;28;20089;-75
2022/12/29 05:30:36;;;;;;;1.50;0.60;;;10.40;91.90;;;;;;5133515;28;20502;-74
2022/12/29 05:33:02;;;;;;;1.17;0.70;;;10.30;91.90;;;;;;5114968;28;20120;-74
2022/12/29 05:35:27;;;;;;;1.00;0.63;;;10.20;92.00;;;;;;5132998;28;20054;-74
2022/12/29 05:37:53;;;;;;;0.50;0.40;;;10.10;92.00;;;;;;5133792;28;20039;-74
2022/12/29 05:40:19;;;;;;;0.75;0.40;;;10.10;92.10;;;;;;5097828;28;20039;-74
2022/12/29 05:42:44;;;;;;;0.47;0.32;;;10.00;92.10;;;;;;5114812;28;20031;-74
2022/12/29 05:45:10;;;;;;;0.30;0.30;;;10.00;92.40;;;;;;5133414;28;20035;-74
2022/12/29 05:47:36;;;;;;;1.10;0.40;;;10.00;92.30;;;;;;5133023;28;20058;-74
2022/12/29 05:50:02;;;;;;;1.45;0.47;;;9.90;92.30;;;;;;5114802;28;20074;-74
2022/12/29 05:52:27;;;;;;;0.40;0.40;;;9.80;92.30;;;;;;5133147;28;20104;-74
2022/12/29 05:54:53;;;;;;;0.50;0.30;;;9.70;92.30;;;;;;5132769;28;20039;-74
2022/12/29 05:57:18;;;;;;;1.15;0.47;;;9.80;92.60;;;;;;5133334;28;20047;-74
2022/12/29 05:59:44;;;;;;;1.48;0.70;;;9.80;92.40;;;;;;5101173;28;20050;-74
2022/12/29 06:02:10;;;;;;;1.50;0.70;;;9.80;92.40;;;;;;5134887;28;20031;-74
2022/12/29 06:04:35;;;;;;;3.38;0.77;;;9.90;92.30;;;;;;5136628;28;20077;-74
2022/12/29 06:07:01;;;;;;;1.13;0.77;;;9.90;92.20;;;;;;5118309;28;20039;-74
2022/12/29 06:09:27;;;;;;;1.25;0.65;;;9.90;92.20;;;;;;5101243;28;20429;-74
2022/12/29 06:11:52;;;;;;;3.10;0.70;;;9.90;92.10;;;;;;5136447;28;20046;-74
2022/12/29 06:14:18;;;;;;;3.50;0.85;;;10.00;92.10;;;;;;5100946;28;20039;-74
2022/12/29 06:16:44;;;;;;;1.58;0.60;;;10.00;92.00;;;;;;5118314;28;20043;-74
2022/12/29 06:19:09;;;;;;;2.60;1.00;;;10.10;92.00;;;;;;5100899;28;20035;-74
2022/12/29 06:21:35;;;;;;;3.17;0.88;;;10.00;92.00;;;;;;5136757;28;20042;-73
2022/12/29 06:24:01;;;;;;;3.00;0.80;;;10.00;91.90;;;;;;5136454;28;20063;-74
2022/12/29 06:26:26;;;;;;;4.03;0.80;;;9.90;91.80;;;;;;5118083;28;20031;-74
2022/12/29 06:28:52;;;;;;;2.38;0.60;;;10.00;91.80;;;;;;5118185;28;20043;-73
2022/12/29 06:31:17;;;;;;;2.42;0.60;;;9.90;91.80;;;;;;5136567;28;20398;-73
2022/12/29 06:33:43;;;;;;;2.95;0.70;;;9.90;91.80;;;;;;5136881;28;20050;-74
2022/12/29 06:36:08;;;;;;;1.73;0.73;;;9.90;91.80;;;;;;5136145;28;20169;-73
2022/12/29 06:38:35;;;;;;;3.30;0.80;;;9.90;91.70;;;;;;5100595;28;20096;-73
2022/12/29 06:41:00;;;;;;;2.65;0.77;;;9.90;91.70;;;;;;5136134;28;20121;-74
2022/12/29 06:43:26;;;;;;;1.55;0.45;;;9.90;91.70;;;;;;5117583;28;20129;-74
2022/12/29 06:45:51;;;;;;;1.95;0.70;;;10.00;91.60;;;;;;5135890;28;20042;-74
2022/12/29 06:48:17;;;;;;;1.85;0.63;;;10.00;91.60;;;;;;5135940;28;20078;-74
2022/12/29 06:50:43;;;;;;;1.45;0.55;;;10.00;91.50;;;;;;5136180;28;20043;-74
2022/12/29 06:53:08;;;;;;;2.33;0.70;;;10.10;91.50;;;;;;5135844;28;20043;-74
2022/12/29 06:55:34;;;;;;;0.88;0.28;;;10.00;91.40;;;;;;5117919;28;20045;-74
2022/12/29 06:58:00;;;;;;;1.15;0.65;;;10.10;91.40;;;;;;5136211;28;20035;-74
2022/12/29 07:00:26;;;;;;;2.03;0.50;;;10.10;91.30;;;;;;5135643;28;20429;-74
2022/12/29 07:02:54;;;;;;;1.80;0.65;;;10.10;91.30;;;;;;5136074;28;20039;-74
2022/12/29 07:05:19;;;;;;;2.22;0.65;;;10.00;91.20;;;;;;5135710;28;20039;-74
2022/12/29 07:07:45;;;;;;;1.67;0.60;;;10.10;91.20;;;;;;5117473;28;20099;-73
2022/12/29 07:10:11;;;;;;;2.15;0.45;;;10.10;91.20;;;;;;5135037;27;20039;-74
2022/12/29 07:12:37;;;;;;;2.38;0.80;;;10.10;91.10;;;;;;5135506;28;20076;-74
2022/12/29 07:15:02;;;;;;;0.50;0.40;;;10.20;91.10;;;;;;5135500;28;20043;-74
2022/12/29 07:17:28;;;;;;;0.82;0.50;;;10.20;91.00;;;;;;5116908;28;20039;-74
2022/12/29 07:19:54;;;;;;;1.58;0.60;;;10.20;91.00;;;;;;5135280;28;20043;-74
2022/12/29 07:22:19;;;;;;;2.80;0.50;;;10.20;91.00;;;;;;5117503;28;20036;-74
2022/12/29 07:24:45;;;;;;;2.28;0.70;;;10.20;90.90;;;;;;5135928;28;20039;-73
2022/12/29 07:27:10;;;;;;;1.63;0.82;;;10.30;90.90;;;;;;5135273;28;20515;-74
2022/12/29 07:29:38;;;;;;;1.48;0.55;;;10.20;90.80;;;;;;5117066;28;20043;-73
2022/12/29 07:32:04;;;;;;;1.55;0.60;;;10.20;90.80;;;;;;5117122;28;20099;-73
2022/12/29 07:34:29;;;;;;;2.65;0.75;;;10.30;90.80;;;;;;5135703;28;20468;-74
2022/12/29 07:36:55;;;;;;;1.30;0.50;;;10.30;90.80;;;;;;5117071;28;20134;-74
2022/12/29 07:39:21;;;;;;;1.35;0.60;;;10.30;90.70;;;;;;5135238;28;20127;-73
2022/12/29 07:41:46;;;;;;;1.83;0.60;;;10.30;90.70;;;;;;5135071;28;20039;-74
2022/12/29 07:44:12;;;;;;;2.78;0.70;;;10.30;90.60;;;;;;5135000;28;20470;-74
2022/12/29 07:46:37;;;;;;;3.33;0.88;;;10.30;90.60;;;;;;5135119;28;20054;-74
2022/12/29 07:49:03;;;;;;;1.40;0.70;;;10.30;90.50;;;;;;5099753;28;20133;-74
2022/12/29 07:51:29;;;;;;;2.22;0.60;;;10.30;90.40;;;;;;5099597;28;20035;-74
2022/12/29 07:53:54;;;;;;;2.90;1.00;;;10.30;90.50;;;;;;5116659;28;20038;-74
2022/12/29 07:56:20;;;;;;;3.50;0.90;;;10.30;90.40;;;;;;5134924;28;20123;-74
2022/12/29 07:58:46;;;;;;;3.03;1.00;;;10.40;90.30;;;;;;5134955;28;20043;-73
2022/12/29 08:01:11;;;;;;;2.08;0.90;;;10.40;90.20;;;;;;5116916;28;20035;-73
2022/12/29 08:03:37;;;;;;;2.85;0.70;;;10.50;90.20;;;;;;5134731;28;20042;-74
2022/12/29 08:06:03;;;;;;;5.07;0.80;;;10.40;90.10;;;;;;5134525;28;20397;-74
2022/12/29 08:08:29;;;;;;;3.65;0.77;;;10.40;90.10;;;;;;5099232;28;20127;-73
2022/12/29 08:10:54;;;;;;;1.63;0.70;;;10.40;90.10;;;;;;5135103;28;20038;-74
2022/12/29 08:13:20;;;;;;;1.77;0.68;;;10.40;90.10;;;;;;5134464;28;20039;-74
2022/12/29 08:15:46;;;;;;;3.53;0.80;;;10.30;90.10;;;;;;5134516;28;20035;-73
2022/12/29 08:18:11;;;;;;;2.03;0.70;;;10.30;90.10;;;;;;5134396;28;20042;-74
2022/12/29 08:20:37;;;;;;;4.25;0.80;;;10.30;90.20;;;;;;5098894;27;20113;-74
2022/12/29 08:23:02;;;;;;;3.53;0.90;;;10.30;90.20;;;;;;5114974;28;20927;-74
2022/12/29 08:25:28;;;;;;;2.20;0.73;;;10.30;90.20;;;;;;5134525;28;20450;-73
2022/12/29 08:27:54;;;;;;;2.05;0.63;;;10.30;90.10;;;;;;5134250;28;20053;-74
2022/12/29 08:30:19;;;;;;;1.38;0.60;;;10.30;90.10;;;;;;5115943;28;20043;-73
2022/12/29 08:32:45;;;;;;;1.92;0.82;;;10.30;90.10;;;;;;5115801;28;20042;-74
2022/12/29 08:35:12;;;;;;;2.92;0.90;;;10.30;90.00;;;;;;5134088;28;20478;-73
2022/12/29 08:37:38;;;;;;;2.33;0.77;;;10.30;90.20;;;;;;5116001;28;20039;-74
2022/12/29 08:40:04;;;;;;;4.03;0.98;;;10.30;89.90;;;;;;5116194;28;20043;-74
2022/12/29 08:42:31;;;;;;;3.28;0.90;;;10.30;89.80;;;;;;5134493;28;20035;-74
2022/12/29 08:44:58;;;;;;;4.72;1.35;;;10.40;89.70;;;;;;5134758;28;20040;-73
2022/12/29 08:47:23;;;;;;;4.00;1.10;;;10.40;89.50;;;;;;5098879;28;20031;-74
2022/12/29 08:49:49;;;;;;;2.70;1.13;;;10.40;89.40;;;;;;5134600;28;20092;-73
2022/12/29 08:52:15;;;;;;;4.05;1.20;;;10.50;89.10;;;;;;5134619;28;20451;-73
2022/12/29 08:54:40;;;;;;;3.63;0.80;;;10.50;89.00;;;;;;5134028;28;20061;-73
2022/12/29 08:57:06;;;;;;;2.50;0.93;;;10.50;88.90;;;;;;5115687;28;20069;-73
2022/12/29 08:59:31;;;;;;;3.05;1.05;;;10.50;88.80;;;;;;5133965;28;20038;-73
2022/12/29 09:01:57;;;;;;;2.35;0.82;;;10.50;88.70;;;;;;5115600;28;20084;-73
2022/12/29 09:04:23;;;;;;;3.53;0.98;;;10.60;88.70;;;;;;5134113;28;20047;-73
2022/12/29 09:06:49;;;;;;;3.03;0.98;;;10.60;88.70;;;;;;5133706;28;20114;-73
2022/12/29 09:09:14;;;;;;;5.68;0.98;;;10.60;88.70;;;;;;5133687;28;20561;-72
2022/12/29 09:11:41;;;;;;;2.00;0.80;;;10.50;88.60;;;;;;5133658;28;20031;-73
2022/12/29 09:14:07;;;;;;;5.25;1.02;;;10.60;88.60;;;;;;5115663;28;20051;-73
2022/12/29 09:16:33;;;;;;;2.70;0.77;;;10.50;88.50;;;;;;5133436;28;20031;-73
2022/12/29 09:18:59;;;;;;;3.55;1.15;;;10.50;88.50;;;;;;5115261;28;20065;-74
2022/12/29 09:21:25;;;;;;;3.97;1.10;;;10.40;88.70;;;;;;5133915;28;20043;-74
2022/12/29 09:23:51;;;;;;;3.72;0.82;;;10.30;88.80;;;;;;5133993;28;20414;-74
2022/12/29 09:26:17;;;;;;;4.53;1.15;;;10.30;89.70;;;;;;5134037;28;20398;-73
2022/12/29 09:28:44;;;;;;;4.30;1.23;;;10.20;89.10;;;;;;5133481;28;20043;-73
2022/12/29 09:31:09;;;;;;;3.00;0.80;;;10.20;89.10;;;;;;5115421;28;20458;-73
2022/12/29 09:33:54;;;;;;;4.07;0.98;;;10.20;89.10;;;;;;5100464;28;20079;-73
2022/12/29 09:36:20;;;;;;;3.50;0.70;;;10.20;89.10;;;;;;5100672;28;20039;-73
2022/12/29 09:38:45;;;;;;;2.97;1.10;;;10.20;89.10;;;;;;5133356;28;20081;-73
2022/12/29 09:41:21;;;;;;;2.13;0.80;;;10.30;89.10;;;;;;5133594;28;20068;-72
2022/12/29 09:44:13;;;;;;;2.78;1.00;;;10.20;89.10;;;;;;5133226;28;20042;-73
2022/12/29 09:46:43;;;;;;;2.50;1.10;;;10.30;89.00;;;;;;5133116;28;20027;-73
2022/12/29 09:49:25;;;;;;;4.47;0.90;;;10.30;88.90;;;;;;5133119;28;20383;-73
2022/12/29 09:51:55;;;;;;;3.58;0.95;;;10.30;88.80;;;;;;5133041;28;20063;-72
2022/12/29 09:54:51;;;;;;;3.85;0.93;;;10.30;88.70;;;;;;5133003;28;20043;-73
2022/12/29 09:57:26;;;;;;;2.17;0.70;;;10.30;88.70;;;;;;5114601;28;20043;-73
2022/12/29 10:00:00;;;;;;;4.15;1.05;;;10.30;88.70;;;;;;5133718;28;20122;-73
2022/12/29 10:02:40;;;;;;;3.20;1.30;;;10.30;88.60;;;;;;5133021;28;20071;-73
2022/12/29 10:05:26;;;;;;;4.35;1.10;;;10.30;88.70;;;;;;5114678;28;20047;-72
2022/12/29 10:08:15;;;;;;;2.03;0.90;;;10.20;88.80;;;;;;5114698;28;20417;-73
2022/12/29 10:10:54;;;;;;;2.67;1.00;;;10.20;88.90;;;;;;5117046;28;20089;-72
2022/12/29 10:13:38;;;;;;;3.42;0.80;;;10.00;89.10;;;;;;5114467;28;20120;-73
2022/12/29 10:16:14;;;;;;;2.92;0.93;;;10.00;89.30;;;;;;5133407;28;20043;-74
2022/12/29 10:19:04;;;;;;;3.80;1.00;;;10.00;89.50;;;;;;5134156;28;20040;-74
2022/12/29 10:21:47;;;;;;;5.50;1.20;;;9.90;89.60;;;;;;5115083;28;20058;-74
2022/12/29 10:24:13;;;;;;;3.78;1.17;;;9.90;89.80;;;;;;5133785;28;20039;-73
2022/12/29 10:26:43;;;;;;;4.95;1.15;;;9.90;89.80;;;;;;5133664;28;20165;-73
2022/12/29 10:29:20;;;;;;;3.42;0.93;;;9.80;89.90;;;;;;5132614;28;20057;-74
2022/12/29 10:32:05;;;;;;;4.55;0.90;;;9.80;90.00;;;;;;5097100;28;20096;-74
2022/12/29 10:34:38;;;;;;;2.70;0.73;;;9.80;90.10;;;;;;5097817;28;20078;-73
2022/12/29 10:37:25;;;;;;;3.63;0.77;;;9.80;90.10;;;;;;5114343;28;20085;-74
2022/12/29 10:39:53;;;;;;;2.28;0.68;;;9.70;90.20;;;;;;5099434;28;20070;-73
2022/12/29 10:42:28;;;;;;;3.97;0.90;;;9.70;90.20;;;;;;5114241;28;20134;-74
2022/12/29 10:44:56;;;;;;;3.88;1.30;;;9.70;90.30;;;;;;5098831;28;20050;-74
2022/12/29 10:47:26;;;;;;;3.35;1.00;;;9.80;90.30;;;;;;5084166;28;20045;-74
2022/12/29 10:49:52;;;;;;;3.00;0.90;;;9.80;90.30;;;;;;5101920;28;20071;-73
2022/12/29 10:52:20;;;;;;;5.07;1.02;;;9.80;90.40;;;;;;5101566;28;20067;-74
2022/12/29 10:54:55;;;;;;;3.92;1.25;;;9.80;90.40;;;;;;5102283;28;20067;-74
2022/12/29 10:57:30;;;;;;;2.65;1.02;;;9.80;90.40;;;;;;5118170;28;20086;-74
2022/12/29 10:59:57;;;;;;;2.47;1.00;;;9.90;90.40;;;;;;5104150;28;20035;-75
2022/12/29 11:02:48;;;;;;;3.40;1.02;;;9.80;90.40;;;;;;5103323;28;20577;-74
2022/12/29 11:05:38;;;;;;;4.03;1.45;;;9.80;90.40;;;;;;5117293;28;20458;-73
2022/12/29 11:08:19;;;;;;;2.63;1.00;;;9.90;90.40;;;;;;5117377;28;20057;-73
2022/12/29 11:10:46;;;;;;;2.22;1.00;;;9.90;90.40;;;;;;5100620;28;20047;-73
2022/12/29 11:13:17;;;;;;;4.35;1.15;;;9.90;90.40;;;;;;5117810;28;20062;-74
2022/12/29 11:15:45;;;;;;;3.15;1.23;;;9.90;90.50;;;;;;5100383;28;20042;-74
2022/12/29 11:18:21;;;;;;;4.28;1.27;;;10.00;90.50;;;;;;5100509;28;20039;-74
2022/12/29 11:20:48;;;;;;;4.00;1.15;;;10.00;90.60;;;;;;5117645;28;20519;-74
2022/12/29 11:23:32;;;;;;;4.88;1.70;;;10.00;90.50;;;;;;5083818;28;20130;-74
2022/12/29 11:26:15;;;;;;;3.30;1.40;;;10.10;90.50;;;;;;5100901;28;20042;-74
2022/12/29 11:28:44;;;;;;;3.28;1.20;;;10.10;90.50;;;;;;5117753;28;20035;-74
2022/12/29 11:31:10;;;;;;;4.80;1.40;;;10.10;90.40;;;;;;5107978;28;20037;-74
2022/12/29 11:33:38;;;;;;;4.85;1.40;;;10.10;90.40;;;;;;5123736;28;20066;-74
2022/12/29 11:36:12;;;;;;;3.53;1.27;;;10.10;90.40;;;;;;5140675;28;20047;-74
2022/12/29 11:38:42;;;;;;;2.25;1.33;;;10.10;90.50;;;;;;5101952;28;20116;-73
2022/12/29 11:41:13;;;;;;;5.35;1.40;;;10.10;90.50;;;;;;5117254;28;20173;-73
2022/12/29 11:43:43;;;;;;;2.78;1.33;;;10.20;90.50;;;;;;5116740;28;20077;-73
2022/12/29 11:46:17;;;;;;;4.30;1.60;;;10.20;90.50;;;;;;5100153;28;20440;-73
2022/12/29 11:48:43;;;;;;;5.15;1.77;;;10.20;90.40;;;;;;5116971;28;20050;-73
2022/12/29 11:51:11;;;;;;;4.85;1.90;;;10.20;90.40;;;;;;5116800;28;20080;-73
2022/12/29 11:53:47;;;;;;;4.43;1.65;;;10.30;90.70;;;;;;5116519;28;20076;-73
2022/12/29 11:56:16;;;;;;;3.63;1.50;;;10.40;90.40;;;;;;5116567;28;20043;-73
2022/12/29 11:58:42;;;;;;;7.25;2.08;;;10.30;90.40;;;;;;5134663;28;20087;-73
2022/12/29 12:01:19;;;;;;;4.43;1.80;;;10.40;90.40;;;;;;5134854;28;20050;-73
2022/12/29 12:03:57;;;;;;;4.90;1.70;;;10.40;90.40;;;;;;5116340;28;20487;-74
2022/12/29 12:06:24;;;;;;;4.57;1.67;;;10.30;90.30;;;;;;5134762;28;20084;-73
2022/12/29 12:09:00;;;;;;;3.85;1.45;;;10.30;90.40;;;;;;5117165;28;20378;-73
2022/12/29 12:11:36;;;;;;;4.38;1.50;;;10.30;90.40;;;;;;5116178;28;20039;-73
2022/12/29 12:14:15;;;;;;;5.15;1.63;;;10.30;90.40;;;;;;5135116;28;20493;-73
2022/12/29 12:16:46;;;;;;;5.68;1.60;;;10.40;90.40;;;;;;5099092;28;20096;-73
2022/12/29 12:19:24;;;;;;;5.65;1.70;;;10.30;90.30;;;;;;5116650;28;20134;-73
2022/12/29 12:21:56;;;;;;;5.78;2.20;;;10.30;90.30;;;;;;5134503;28;20470;-74
2022/12/29 12:24:51;;;;;;;5.68;1.90;;;10.40;90.30;;;;;;5119221;28;20031;-74
2022/12/29 12:27:29;;;;;;;5.57;2.22;;;10.40;90.20;;;;;;5134866;28;20432;-72
2022/12/29 12:30:02;;;;;;;6.38;2.35;;;10.40;90.10;;;;;;5116036;28;20081;-74
2022/12/29 12:33:05;;;;;;;5.65;1.95;;;10.40;90.10;;;;;;5115826;28;20493;-74
2022/12/29 12:36:05;;;;;;;4.82;1.70;;;10.50;90.10;;;;;;5115666;28;20464;-73
2022/12/29 12:38:50;;;;;;;6.57;1.95;;;10.60;90.10;;;;;;5133842;28;20538;-73
2022/12/29 12:41:27;;;;;;;4.65;1.73;;;10.60;90.10;;;;;;5134273;28;20035;-73
2022/12/29 12:44:25;;;;;;;3.47;1.48;;;10.70;90.00;;;;;;5115806;28;20584;-74
2022/12/29 12:47:16;;;;;;;3.50;1.73;;;10.80;89.90;;;;;;5134101;28;20053;-73
2022/12/29 12:50:18;;;;;;;4.32;1.40;;;10.90;89.60;;;;;;5134681;28;20100;-73
2022/12/29 12:53:03;;;;;;;5.10;1.77;;;10.80;89.30;;;;;;5115985;28;20038;-74
2022/12/29 12:55:55;;;;;;;3.40;1.67;;;11.00;89.20;;;;;;5120332;28;20096;-74
2022/12/29 12:58:44;;;;;;;5.18;1.80;;;10.90;89.30;;;;;;5116484;28;20126;-75
2022/12/29 13:01:33;;;;;;;4.45;1.80;;;10.70;89.40;;;;;;5134091;28;20100;-74
2022/12/29 13:04:37;;;;;;;4.80;2.00;;;10.70;89.60;;;;;;5115454;28;20134;-74
2022/12/29 13:07:27;;;;;;;7.05;1.90;;;10.60;89.70;;;;;;5133350;27;20039;-74
2022/12/29 13:10:23;;;;;;;5.82;2.00;;;10.60;89.80;;;;;;5131616;28;20061;-74
2022/12/29 13:13:03;;;;;;;4.93;1.60;;;10.50;89.80;;;;;;5133579;28;20046;-74
2022/12/29 13:15:57;;;;;;;6.28;1.90;;;10.50;89.90;;;;;;5115056;28;20126;-74
2022/12/29 13:18:48;;;;;;;4.30;1.60;;;10.40;89.90;;;;;;5115003;28;20125;-75
2022/12/29 13:21:48;;;;;;;5.25;1.75;;;10.50;89.90;;;;;;5133412;28;20541;-75
2022/12/29 13:24:31;;;;;;;3.42;1.40;;;10.50;90.00;;;;;;5115103;28;20081;-75
2022/12/29 13:27:09;;;;;;;1.98;1.30;;;10.50;90.00;;;;;;5134187;28;20035;-75
2022/12/29 13:29:55;;;;;;;5.68;1.45;;;10.40;90.00;;;;;;5115046;28;20046;-75
2022/12/29 13:32:32;;;;;;;3.67;1.40;;;10.40;90.00;;;;;;5133458;28;20053;-74
2022/12/29 13:35:28;;;;;;;4.88;1.48;;;10.30;90.00;;;;;;5099159;28;20039;-75
2022/12/29 13:38:00;;;;;;;3.58;1.40;;;10.40;90.00;;;;;;5118449;28;20122;-74
2022/12/29 13:40:33;;;;;;;3.10;1.30;;;10.30;90.00;;;;;;5133226;28;20457;-74
2022/12/29 13:43:01;;;;;;;3.20;1.45;;;10.40;90.00;;;;;;5133404;28;20035;-74
2022/12/29 13:45:31;;;;;;;3.83;1.40;;;10.40;90.00;;;;;;5115662;28;20482;-74